Terminal Aerodrome Forecast
Issued by NWS Wakefield, VA

Home | Current Version | Previous Version | Text Only | Print | Product List | Glossary On
Versions: 1 2 3 4 5 6 7 8 9 10 11 12 13 14 15 16 17 18 19 20 21
000
FTUS41 KAKQ 272339
TAFSBY
TAF
KSBY 272339Z 2800/2824 18008KT P6SM SCT120 BKN250
     FM280800 18006KT 4SM BR BKN010 OVC040
     FM281500 22007KT P6SM SCT020 BKN060
     FM281800 22009KT P6SM SCT030 BKN050=

USA.gov is the U.S. government's official web portal to all federal, state and local government web resources and services.